Time;durP1;ratioP1;P1;durP2;ratioP2;P2;SDS_P1;SDS_P2;PMS_P1;PMS_P2;Temp;Humidity;BMP_temperature;BMP_pressure;BME280_temperature;BME280_humidity;BME280_pressure;Samples;Min_cycle;Max_cycle;Signal;HPM_P1;HPM_P2
2021/01/03 00:01:00;;;;;;;76.18;31.48;;;2.70;96.80;;;;;;5005544;28;20042;-77
2021/01/03 00:03:25;;;;;;;72.50;35.35;;;2.70;97.00;;;;;;5018341;28;20443;-77
2021/01/03 00:05:51;;;;;;;73.72;34.88;;;2.70;96.80;;;;;;5022022;28;20792;-77
2021/01/03 00:08:16;;;;;;;71.57;32.00;;;2.70;97.00;;;;;;5021593;28;20377;-77
2021/01/03 00:10:42;;;;;;;73.95;36.08;;;2.70;96.80;;;;;;5004138;28;20080;-77
2021/01/03 00:13:07;;;;;;;75.30;34.13;;;2.60;96.90;;;;;;5005461;28;20124;-77
2021/01/03 00:15:33;;;;;;;69.25;32.22;;;2.60;97.10;;;;;;5020020;28;20077;-77
2021/01/03 00:17:58;;;;;;;75.13;33.35;;;2.70;97.00;;;;;;5022556;28;20561;-77
2021/01/03 00:20:26;;;;;;;71.68;32.33;;;2.70;96.90;;;;;;5031502;28;20152;-77
2021/01/03 00:22:51;;;;;;;69.57;33.25;;;2.70;96.90;;;;;;5038210;28;20049;-77
2021/01/03 00:25:18;;;;;;;67.07;32.00;;;2.70;96.90;;;;;;5022818;28;20037;-77
2021/01/03 00:27:43;;;;;;;80.05;34.30;;;2.70;97.10;;;;;;4990075;28;20040;-77
2021/01/03 00:30:10;;;;;;;70.70;32.85;;;2.70;96.90;;;;;;5022595;28;20021;-77
2021/01/03 00:32:36;;;;;;;75.60;33.30;;;2.70;97.00;;;;;;5004860;28;20552;-76
2021/01/03 00:35:02;;;;;;;68.72;31.88;;;2.70;97.00;;;;;;4987643;28;20175;-77
2021/01/03 00:37:28;;;;;;;71.50;31.10;;;2.70;96.90;;;;;;4988888;28;20045;-77
2021/01/03 00:39:53;;;;;;;71.78;31.48;;;2.70;97.00;;;;;;5005885;28;20017;-77
2021/01/03 00:42:19;;;;;;;72.88;35.28;;;2.70;97.00;;;;;;5020684;28;20179;-77
2021/01/03 00:44:45;;;;;;;71.10;31.02;;;2.70;97.00;;;;;;5005522;28;20026;-77
2021/01/03 00:47:10;;;;;;;74.80;32.00;;;2.70;97.10;;;;;;5006407;28;20028;-77
2021/01/03 00:49:36;;;;;;;75.82;36.05;;;2.70;97.10;;;;;;5005841;28;20437;-78
2021/01/03 00:52:02;;;;;;;74.28;34.75;;;2.60;97.00;;;;;;5006749;28;20040;-78
2021/01/03 00:54:27;;;;;;;66.32;30.27;;;2.70;97.10;;;;;;4989703;28;20041;-77
2021/01/03 00:56:53;;;;;;;74.75;35.58;;;2.70;97.10;;;;;;5003685;28;20374;-77
2021/01/03 00:59:18;;;;;;;68.72;29.77;;;2.70;97.00;;;;;;5004515;28;20033;-78
2021/01/03 01:01:44;;;;;;;69.75;32.08;;;2.70;97.00;;;;;;5001077;28;20540;-77
2021/01/03 01:04:09;;;;;;;77.38;36.30;;;2.70;97.10;;;;;;5010562;28;20080;-77
2021/01/03 01:06:35;;;;;;;67.80;32.58;;;2.70;97.10;;;;;;5020952;28;20029;-78
2021/01/03 01:09:00;;;;;;;70.22;33.60;;;2.70;97.10;;;;;;5006239;28;20261;-78
2021/01/03 01:11:27;;;;;;;73.38;33.42;;;2.70;97.10;;;;;;5003207;28;20040;-77
2021/01/03 01:13:53;;;;;;;75.43;33.97;;;2.70;97.00;;;;;;5020853;28;20033;-78
2021/01/03 01:16:18;;;;;;;71.93;33.22;;;2.70;97.20;;;;;;5004566;28;20045;-77
2021/01/03 01:18:44;;;;;;;71.43;31.77;;;2.70;97.40;;;;;;5019263;28;20030;-78
2021/01/03 01:21:09;;;;;;;75.40;34.90;;;2.70;97.00;;;;;;5005430;28;20048;-78
2021/01/03 01:23:35;;;;;;;70.03;31.75;;;2.70;97.00;;;;;;5019559;28;20048;-78
2021/01/03 01:26:00;;;;;;;64.15;28.20;;;2.70;97.10;;;;;;5005218;28;20033;-78
2021/01/03 01:28:26;;;;;;;70.53;31.63;;;2.70;97.00;;;;;;5003472;28;20052;-78
2021/01/03 01:30:51;;;;;;;72.40;31.65;;;2.70;97.00;;;;;;5020886;28;20037;-78
2021/01/03 01:33:18;;;;;;;64.00;30.25;;;2.70;97.10;;;;;;5003941;28;20025;-78
2021/01/03 01:35:44;;;;;;;66.38;32.40;;;2.70;97.20;;;;;;5003372;28;20030;-77
2021/01/03 01:38:09;;;;;;;71.38;31.23;;;2.70;97.00;;;;;;5004210;28;20041;-78
2021/01/03 01:40:37;;;;;;;67.95;30.42;;;2.70;97.00;;;;;;5019389;28;20492;-78
2021/01/03 01:43:04;;;;;;;66.45;30.58;;;2.70;97.10;;;;;;5003226;28;20495;-78
2021/01/03 01:45:32;;;;;;;68.32;32.55;;;2.70;97.20;;;;;;5032974;28;20044;-79
2021/01/03 01:48:19;;;;;;;72.22;34.45;;;2.70;97.00;;;;;;5017399;28;20459;-78
2021/01/03 01:50:51;;;;;;;67.78;31.23;;;2.70;97.20;;;;;;5019705;28;20112;-78
2021/01/03 01:53:42;;;;;;;68.20;31.63;;;2.70;97.20;;;;;;5018326;28;20034;-77
2021/01/03 01:56:15;;;;;;;69.97;30.83;;;2.70;97.10;;;;;;5019734;28;20500;-78
2021/01/03 01:58:48;;;;;;;72.05;33.42;;;2.70;97.10;;;;;;5022367;28;20030;-78
2021/01/03 02:01:17;;;;;;;75.60;32.83;;;2.70;97.20;;;;;;5023619;28;20120;-78
2021/01/03 02:03:53;;;;;;;74.75;33.45;;;2.70;97.10;;;;;;5008164;28;20026;-79
2021/01/03 02:06:24;;;;;;;72.65;33.83;;;2.70;97.10;;;;;;5007977;28;20036;-78
2021/01/03 02:08:57;;;;;;;62.05;28.67;;;2.70;97.10;;;;;;5005879;28;20077;-78
2021/01/03 02:11:24;;;;;;;76.63;34.03;;;2.70;97.20;;;;;;5007298;28;20033;-78
2021/01/03 02:13:52;;;;;;;58.78;28.33;;;2.70;97.20;;;;;;5005834;28;20048;-78
2021/01/03 02:16:23;;;;;;;69.70;30.70;;;2.60;97.00;;;;;;5007037;28;20059;-79
2021/01/03 02:18:49;;;;;;;73.68;36.70;;;2.60;97.10;;;;;;4998930;28;20116;-78
2021/01/03 02:21:28;;;;;;;70.20;32.20;;;2.70;97.20;;;;;;5020943;28;20720;-78
2021/01/03 02:24:21;;;;;;;68.72;31.23;;;2.60;97.20;;;;;;5024101;28;20397;-79
2021/01/03 02:26:50;;;;;;;67.03;31.02;;;2.60;97.10;;;;;;5007296;28;20180;-79
2021/01/03 02:29:16;;;;;;;65.38;30.60;;;2.60;97.10;;;;;;5010872;28;20469;-79
2021/01/03 02:31:44;;;;;;;64.97;29.75;;;2.60;97.10;;;;;;5009682;28;20045;-79
2021/01/03 02:34:11;;;;;;;73.60;35.97;;;2.60;97.10;;;;;;5009120;28;20399;-79
2021/01/03 02:37:01;;;;;;;75.88;31.58;;;2.60;97.10;;;;;;4992073;28;20050;-78
2021/01/03 02:39:33;;;;;;;71.40;30.30;;;2.60;97.00;;;;;;5010299;28;20133;-79
2021/01/03 02:42:00;;;;;;;66.15;31.08;;;2.60;97.10;;;;;;5034680;28;20036;-79
2021/01/03 02:44:26;;;;;;;67.03;30.05;;;2.60;97.00;;;;;;5009269;28;20124;-79
2021/01/03 02:46:53;;;;;;;68.13;34.13;;;2.60;97.00;;;;;;5036139;28;20112;-79
2021/01/03 02:49:19;;;;;;;70.13;34.00;;;2.60;97.00;;;;;;5008479;28;20121;-79
2021/01/03 02:51:44;;;;;;;57.92;28.92;;;2.60;97.20;;;;;;5023657;28;20112;-79
2021/01/03 02:54:10;;;;;;;63.83;31.13;;;2.60;97.10;;;;;;5026307;28;20057;-79
2021/01/03 02:56:35;;;;;;;63.55;29.20;;;2.60;97.20;;;;;;5009687;28;20036;-79
2021/01/03 02:59:01;;;;;;;57.70;27.23;;;2.60;97.20;;;;;;5010749;28;20033;-79
2021/01/03 03:01:26;;;;;;;64.10;30.30;;;2.60;97.00;;;;;;5006447;28;20034;-79
2021/01/03 03:03:52;;;;;;;53.85;27.33;;;2.50;97.00;;;;;;5007779;28;20048;-79
2021/01/03 03:06:17;;;;;;;63.70;28.48;;;2.50;97.00;;;;;;5024908;28;20026;-79
2021/01/03 03:08:43;;;;;;;63.53;29.48;;;2.60;97.00;;;;;;5005641;28;20068;-77
2021/01/03 03:11:09;;;;;;;57.03;28.00;;;2.50;97.00;;;;;;5007923;28;20034;-77
2021/01/03 03:13:34;;;;;;;61.42;32.38;;;2.50;97.10;;;;;;5008886;28;20030;-77
2021/01/03 03:16:00;;;;;;;57.50;27.05;;;2.50;97.00;;;;;;5022153;28;20844;-77
2021/01/03 03:18:25;;;;;;;58.85;27.75;;;2.50;97.00;;;;;;5005536;28;20149;-77
2021/01/03 03:20:51;;;;;;;58.35;29.58;;;2.50;97.00;;;;;;5006059;28;20419;-77
2021/01/03 03:23:16;;;;;;;55.63;27.98;;;2.50;97.00;;;;;;5007059;28;20485;-78
2021/01/03 03:25:42;;;;;;;58.55;28.15;;;2.50;96.90;;;;;;5035314;28;20416;-78
2021/01/03 03:28:07;;;;;;;56.58;28.85;;;2.40;96.90;;;;;;5006971;28;20607;-78
2021/01/03 03:30:33;;;;;;;64.65;29.63;;;2.40;97.10;;;;;;5023173;28;20087;-78
2021/01/03 03:32:59;;;;;;;56.85;28.88;;;2.50;97.10;;;;;;5008481;28;20031;-78
2021/01/03 03:35:35;;;;;;;48.75;24.75;;;2.40;96.90;;;;;;5005865;28;20037;-79
2021/01/03 03:38:00;;;;;;;60.55;28.02;;;2.40;96.90;;;;;;5024110;28;20026;-78
2021/01/03 03:40:26;;;;;;;59.67;26.70;;;2.50;97.10;;;;;;5004028;28;20384;-78
2021/01/03 03:42:51;;;;;;;49.35;24.60;;;2.40;97.00;;;;;;5023345;28;20436;-78
2021/01/03 03:45:17;;;;;;;53.03;26.23;;;2.40;97.10;;;;;;5021159;28;20377;-78
2021/01/03 03:47:43;;;;;;;55.25;28.40;;;2.40;96.90;;;;;;5004732;28;20025;-78
2021/01/03 03:50:12;;;;;;;47.10;23.85;;;2.40;96.90;;;;;;4992289;28;20061;-78
2021/01/03 03:52:38;;;;;;;50.20;25.13;;;2.40;96.90;;;;;;4991682;28;20072;-78
2021/01/03 03:55:04;;;;;;;50.33;24.55;;;2.30;96.80;;;;;;4990195;28;20061;-78
2021/01/03 03:57:29;;;;;;;50.30;23.88;;;2.30;96.90;;;;;;5006867;28;20038;-79
2021/01/03 03:59:55;;;;;;;50.97;24.52;;;2.40;96.90;;;;;;5005229;28;20030;-79
2021/01/03 04:02:20;;;;;;;47.53;22.75;;;2.40;96.90;;;;;;5022870;28;20084;-78
2021/01/03 04:04:46;;;;;;;51.95;25.60;;;2.40;96.90;;;;;;5004586;28;20541;-79
2021/01/03 04:07:11;;;;;;;50.30;24.63;;;2.40;97.00;;;;;;4991281;28;20481;-79
2021/01/03 04:09:37;;;;;;;45.17;22.38;;;2.30;96.90;;;;;;5008074;28;20038;-78
2021/01/03 04:12:03;;;;;;;49.25;25.50;;;2.30;96.90;;;;;;5008926;28;20037;-79
2021/01/03 04:14:28;;;;;;;55.25;23.70;;;2.40;96.90;;;;;;5023659;28;20481;-79
2021/01/03 04:16:56;;;;;;;43.28;22.17;;;2.40;96.90;;;;;;5008027;28;20140;-79
2021/01/03 04:19:22;;;;;;;47.33;27.52;;;2.30;96.80;;;;;;5023850;28;20091;-79
2021/01/03 04:21:52;;;;;;;47.70;25.17;;;2.40;96.90;;;;;;5024422;28;20493;-79
2021/01/03 04:24:17;;;;;;;45.22;23.17;;;2.40;96.80;;;;;;5021694;28;20149;-79
2021/01/03 04:26:48;;;;;;;44.05;21.23;;;2.30;96.90;;;;;;5005940;28;20109;-80
2021/01/03 04:29:13;;;;;;;45.20;25.15;;;2.40;96.80;;;;;;5008311;28;20040;-79
2021/01/03 04:31:39;;;;;;;46.42;24.52;;;2.40;96.90;;;;;;5007414;28;20033;-79
2021/01/03 04:34:04;;;;;;;49.08;24.08;;;2.40;96.90;;;;;;5005653;28;20117;-80
2021/01/03 04:36:30;;;;;;;43.88;22.08;;;2.40;96.90;;;;;;5007401;28;20057;-80
2021/01/03 04:38:55;;;;;;;49.00;24.67;;;2.40;96.90;;;;;;4991343;28;20108;-80
2021/01/03 04:41:25;;;;;;;48.83;24.58;;;2.40;96.90;;;;;;4992294;28;20033;-80
2021/01/03 04:43:51;;;;;;;50.60;25.42;;;2.40;96.90;;;;;;5021971;28;20033;-80
2021/01/03 04:46:18;;;;;;;51.28;23.92;;;2.30;97.00;;;;;;5006874;28;20032;-80
2021/01/03 04:48:44;;;;;;;48.05;25.55;;;2.40;97.00;;;;;;5021246;28;20038;-80
2021/01/03 04:51:15;;;;;;;43.85;22.70;;;2.40;97.00;;;;;;4991919;28;20328;-80
2021/01/03 04:53:55;;;;;;;50.75;25.27;;;2.40;96.90;;;;;;5005935;28;20052;-79
2021/01/03 04:56:35;;;;;;;54.40;28.35;;;2.40;96.90;;;;;;5007084;28;20033;-79
2021/01/03 04:59:40;;;;;;;46.58;23.02;;;2.40;96.90;;;;;;5053552;28;20057;-80
2021/01/03 05:02:30;;;;;;;49.65;24.63;;;2.40;96.90;;;;;;5031024;28;20056;-80
2021/01/03 05:05:13;;;;;;;47.42;24.40;;;2.40;96.90;;;;;;5014797;28;20493;-79
2021/01/03 05:07:40;;;;;;;45.58;22.85;;;2.40;96.90;;;;;;5025299;28;20049;-79
2021/01/03 05:10:16;;;;;;;49.65;23.70;;;2.40;97.00;;;;;;5009076;28;20044;-79
2021/01/03 05:13:02;;;;;;;48.00;22.48;;;2.40;96.90;;;;;;5018119;28;20030;-79
2021/01/03 05:15:30;;;;;;;49.30;24.85;;;2.40;96.80;;;;;;5009460;28;20477;-79
2021/01/03 05:17:55;;;;;;;46.13;22.10;;;2.40;96.90;;;;;;5005229;28;20028;-79
2021/01/03 05:20:21;;;;;;;42.85;20.92;;;2.40;96.80;;;;;;5005271;28;20489;-79
2021/01/03 05:22:46;;;;;;;45.72;22.35;;;2.40;96.80;;;;;;5022564;28;20033;-79
2021/01/03 05:25:13;;;;;;;45.50;21.80;;;2.40;96.90;;;;;;5006257;28;20358;-79
2021/01/03 05:27:39;;;;;;;43.17;20.73;;;2.40;96.80;;;;;;5005960;28;20033;-79
2021/01/03 05:30:26;;;;;;;48.08;24.33;;;2.50;96.90;;;;;;5001863;28;20045;-79
2021/01/03 05:32:51;;;;;;;;;;;2.40;96.80;;;;;;5007087;28;20025;-79
2021/01/03 05:35:17;;;;;;;39.10;21.93;;;2.40;96.80;;;;;;5013772;28;19909;-79
2021/01/03 05:37:42;;;;;;;43.78;22.85;;;2.40;96.90;;;;;;5020520;28;20106;-79
2021/01/03 05:40:19;;;;;;;40.35;19.80;;;2.40;97.00;;;;;;4989268;28;20029;-79
2021/01/03 05:42:44;;;;;;;44.72;22.05;;;2.40;96.90;;;;;;5009966;28;20041;-79
2021/01/03 05:45:24;;;;;;;38.22;20.58;;;2.40;96.90;;;;;;5001089;28;20029;-79
2021/01/03 05:48:00;;;;;;;35.88;18.15;;;2.40;96.90;;;;;;4986076;28;20087;-79
2021/01/03 05:50:33;;;;;;;;;;;2.40;96.90;;;;;;5013225;28;20057;-79
2021/01/03 05:53:11;;;;;;;36.42;20.17;;;2.40;96.80;;;;;;5014307;28;19917;-79
2021/01/03 05:55:37;;;;;;;39.33;17.83;;;2.40;96.80;;;;;;5020843;28;20148;-79
2021/01/03 05:58:10;;;;;;;36.53;18.23;;;2.50;96.80;;;;;;4995540;28;20029;-80
2021/01/03 06:00:35;;;;;;;38.03;18.17;;;2.50;96.70;;;;;;5014177;28;20108;-80
2021/01/03 06:03:12;;;;;;;34.85;17.80;;;2.50;96.70;;;;;;5005639;28;20116;-79
2021/01/03 06:05:45;;;;;;;36.85;18.67;;;2.50;96.70;;;;;;5014569;28;20513;-78
2021/01/03 06:08:21;;;;;;;34.58;16.52;;;2.50;96.70;;;;;;5022445;28;20119;-79
2021/01/03 06:10:46;;;;;;;31.73;17.98;;;2.50;96.70;;;;;;5021574;28;20104;-79
2021/01/03 06:13:14;;;;;;;32.72;16.80;;;2.40;96.70;;;;;;5023974;28;20144;-79
2021/01/03 06:15:53;;;;;;;27.92;15.02;;;2.40;96.80;;;;;;4989362;28;20037;-78
2021/01/03 06:18:31;;;;;;;26.90;13.70;;;2.40;96.70;;;;;;4989539;28;20033;-78
2021/01/03 06:20:57;;;;;;;27.42;17.05;;;2.40;96.70;;;;;;5039947;28;20547;-79
2021/01/03 06:23:30;;;;;;;29.20;15.30;;;2.40;96.70;;;;;;5003907;28;20079;-79
2021/01/03 06:25:58;;;;;;;26.85;14.05;;;2.40;96.60;;;;;;4998544;28;20037;-79
2021/01/03 06:28:24;;;;;;;24.98;13.65;;;2.40;96.60;;;;;;4994183;28;20041;-79
2021/01/03 06:31:04;;;;;;;27.52;15.68;;;2.40;96.50;;;;;;5022650;28;20107;-79
2021/01/03 06:33:59;;;;;;;22.60;12.00;;;2.40;96.60;;;;;;5022633;28;20495;-79
2021/01/03 06:36:47;;;;;;;26.33;12.13;;;2.40;96.60;;;;;;5018410;28;20034;-79
2021/01/03 06:39:25;;;;;;;22.92;11.35;;;2.40;96.60;;;;;;5005029;28;20504;-78
2021/01/03 06:41:57;;;;;;;25.00;12.63;;;2.40;96.40;;;;;;5021180;28;20037;-78
2021/01/03 06:44:58;;;;;;;22.58;12.40;;;2.50;96.30;;;;;;5022744;28;20033;-79
2021/01/03 06:47:54;;;;;;;24.33;12.18;;;2.40;96.40;;;;;;4992303;28;20450;-78
2021/01/03 06:50:50;;;;;;;24.25;12.80;;;2.40;96.40;;;;;;5022159;28;20041;-78
2021/01/03 06:53:47;;;;;;;18.77;10.30;;;2.40;96.40;;;;;;5026482;28;20022;-78
2021/01/03 06:56:43;;;;;;;18.38;12.98;;;2.50;96.20;;;;;;5026283;28;20496;-79
2021/01/03 06:59:41;;;;;;;20.33;11.60;;;2.40;96.10;;;;;;5009812;28;20026;-78
2021/01/03 07:02:07;;;;;;;22.73;10.38;;;2.40;96.20;;;;;;5011946;28;20040;-78
2021/01/03 07:04:37;;;;;;;20.60;11.70;;;2.50;96.30;;;;;;5007386;28;20037;-79
2021/01/03 07:07:08;;;;;;;19.00;10.60;;;2.40;96.00;;;;;;5024920;28;20167;-79
2021/01/03 07:09:33;;;;;;;19.58;10.68;;;2.40;96.10;;;;;;5023942;28;20037;-78
2021/01/03 07:11:59;;;;;;;18.92;10.63;;;2.40;96.00;;;;;;4990161;28;20188;-79
2021/01/03 07:14:25;;;;;;;21.10;10.50;;;2.50;96.10;;;;;;5005591;28;20022;-79
2021/01/03 07:16:55;;;;;;;20.38;12.60;;;2.50;95.80;;;;;;5052526;28;20041;-78
2021/01/03 07:19:29;;;;;;;18.05;10.30;;;2.50;96.10;;;;;;5006506;28;20032;-78
2021/01/03 07:22:03;;;;;;;17.75;10.13;;;2.50;96.00;;;;;;5025249;28;20083;-78
2021/01/03 07:24:33;;;;;;;18.75;11.63;;;2.50;95.80;;;;;;5005989;28;20082;-78
2021/01/03 07:27:33;;;;;;;18.63;10.07;;;2.50;96.10;;;;;;5023160;28;20029;-79
2021/01/03 07:30:04;;;;;;;16.50;9.73;;;2.40;96.00;;;;;;5023804;28;20477;-78
2021/01/03 07:32:33;;;;;;;17.75;9.45;;;2.50;95.90;;;;;;5024481;28;20409;-79
2021/01/03 07:34:59;;;;;;;18.00;10.95;;;2.40;96.00;;;;;;5024911;28;20022;-78
2021/01/03 07:37:27;;;;;;;15.02;8.23;;;2.50;96.10;;;;;;5021934;28;20676;-78
2021/01/03 07:39:59;;;;;;;16.67;11.48;;;2.40;96.10;;;;;;5037823;28;20034;-78
2021/01/03 07:42:27;;;;;;;15.93;8.48;;;2.50;95.90;;;;;;5032180;28;20104;-78
2021/01/03 07:44:53;;;;;;;18.08;11.32;;;2.50;95.90;;;;;;5037534;28;20038;-78
2021/01/03 07:47:38;;;;;;;16.20;8.48;;;2.50;95.90;;;;;;5003941;28;20441;-78
2021/01/03 07:50:18;;;;;;;14.48;9.32;;;2.50;95.80;;;;;;5050971;28;20063;-78
2021/01/03 07:52:51;;;;;;;16.58;10.02;;;2.50;95.80;;;;;;5039619;28;20034;-78
2021/01/03 07:55:22;;;;;;;18.73;9.00;;;2.50;95.80;;;;;;5005644;28;20028;-78
2021/01/03 07:58:09;;;;;;;13.68;7.50;;;2.50;95.90;;;;;;5043831;28;20091;-79
2021/01/03 08:00:36;;;;;;;14.98;9.38;;;2.50;95.50;;;;;;5039929;28;20034;-78
2021/01/03 08:03:13;;;;;;;13.48;9.70;;;2.50;95.70;;;;;;5003938;28;20029;-78
2021/01/03 08:05:39;;;;;;;15.10;8.90;;;2.50;95.70;;;;;;4989461;28;20049;-78
2021/01/03 08:08:17;;;;;;;14.40;8.45;;;2.50;95.80;;;;;;4991244;28;20076;-78
2021/01/03 08:10:43;;;;;;;13.60;8.23;;;2.60;95.60;;;;;;5008038;28;20037;-79
2021/01/03 08:13:11;;;;;;;11.60;7.47;;;2.50;95.20;;;;;;5004777;28;20445;-79
2021/01/03 08:15:36;;;;;;;13.55;8.38;;;2.50;95.40;;;;;;4990014;28;20072;-78
2021/01/03 08:18:15;;;;;;;14.18;8.45;;;2.50;95.30;;;;;;4989634;28;20041;-78
2021/01/03 08:20:41;;;;;;;14.82;8.00;;;2.60;95.60;;;;;;5037620;28;20030;-78
2021/01/03 08:23:08;;;;;;;13.32;8.10;;;2.60;95.40;;;;;;5006342;28;20028;-78
2021/01/03 08:25:34;;;;;;;17.75;8.57;;;2.60;95.70;;;;;;4990182;28;20042;-78
2021/01/03 08:28:17;;;;;;;12.20;8.48;;;2.50;95.70;;;;;;5006266;28;20055;-79
2021/01/03 08:30:43;;;;;;;13.48;8.68;;;2.50;95.60;;;;;;4976323;28;20022;-79
2021/01/03 08:33:17;;;;;;;14.13;7.65;;;2.60;95.40;;;;;;5009547;28;20028;-79
2021/01/03 08:35:43;;;;;;;12.70;8.35;;;2.70;95.10;;;;;;5033457;28;20040;-78
2021/01/03 08:38:08;;;;;;;12.50;7.45;;;2.70;95.40;;;;;;4988065;28;20496;-78
2021/01/03 08:40:42;;;;;;;12.15;8.18;;;2.60;95.50;;;;;;5005262;28;20548;-78
2021/01/03 08:43:23;;;;;;;15.32;9.38;;;2.60;95.50;;;;;;4984786;28;20033;-78
2021/01/03 08:45:49;;;;;;;12.55;7.88;;;2.60;95.50;;;;;;5018824;28;20033;-78
2021/01/03 08:48:20;;;;;;;12.75;7.38;;;2.60;95.70;;;;;;5006160;28;20084;-78
2021/01/03 08:50:46;;;;;;;8.27;5.43;;;2.70;95.60;;;;;;5004803;28;20533;-78
2021/01/03 08:53:22;;;;;;;10.32;7.32;;;2.70;95.30;;;;;;5022741;28;20117;-78
2021/01/03 08:55:48;;;;;;;11.30;7.30;;;2.70;95.40;;;;;;5034301;28;20064;-78
2021/01/03 08:58:16;;;;;;;10.45;6.60;;;2.70;95.10;;;;;;5004525;28;20476;-78
2021/01/03 09:00:43;;;;;;;10.52;7.22;;;2.70;95.60;;;;;;5003607;28;20088;-78
2021/01/03 09:03:16;;;;;;;10.30;6.03;;;2.70;95.40;;;;;;5005417;28;20084;-79
2021/01/03 09:05:42;;;;;;;13.70;8.18;;;2.70;95.20;;;;;;5037135;28;20029;-78
2021/01/03 09:08:12;;;;;;;12.40;7.35;;;2.70;95.50;;;;;;4987757;28;20034;-79
2021/01/03 09:10:41;;;;;;;12.10;6.97;;;2.70;95.50;;;;;;5004521;28;20654;-80
2021/01/03 09:13:26;;;;;;;10.57;6.32;;;2.80;95.50;;;;;;5005529;28;20113;-79
2021/01/03 09:16:14;;;;;;;8.18;5.80;;;2.80;95.40;;;;;;4994356;28;20038;-80
2021/01/03 09:18:56;;;;;;;10.85;5.80;;;2.80;95.50;;;;;;5013127;28;20036;-80
2021/01/03 09:21:22;;;;;;;9.68;5.57;;;2.80;95.20;;;;;;5017234;28;20053;-79
2021/01/03 09:23:48;;;;;;;9.27;5.50;;;2.80;95.10;;;;;;5022332;28;20064;-79
2021/01/03 09:26:14;;;;;;;9.30;5.47;;;2.90;95.50;;;;;;4989822;28;20030;-80
2021/01/03 09:28:41;;;;;;;9.45;5.45;;;2.90;95.40;;;;;;4987702;28;20607;-80
2021/01/03 09:31:15;;;;;;;8.45;5.32;;;3.00;95.70;;;;;;4988809;28;20033;-79
2021/01/03 09:33:46;;;;;;;9.20;6.22;;;2.90;95.40;;;;;;5017291;28;20038;-79
2021/01/03 09:36:44;;;;;;;9.48;5.43;;;2.90;95.00;;;;;;5020722;28;20115;-79
2021/01/03 09:39:32;;;;;;;9.50;6.60;;;2.90;95.00;;;;;;4991411;28;20033;-79
2021/01/03 09:42:18;;;;;;;10.98;5.82;;;3.00;95.30;;;;;;5047105;28;20049;-79
2021/01/03 09:45:02;;;;;;;8.63;6.25;;;2.90;94.70;;;;;;5025687;28;20036;-79
2021/01/03 09:47:41;;;;;;;8.80;5.32;;;3.00;95.00;;;;;;5026468;28;20392;-79
2021/01/03 09:50:24;;;;;;;10.25;6.38;;;3.00;95.30;;;;;;5041477;28;20120;-79
2021/01/03 09:53:11;;;;;;;9.18;6.55;;;3.10;95.40;;;;;;5023720;28;20025;-79
2021/01/03 09:55:44;;;;;;;9.52;5.65;;;3.00;94.70;;;;;;5022174;28;20370;-77
2021/01/03 09:58:09;;;;;;;11.88;6.38;;;3.00;95.00;;;;;;4997384;28;20029;-79
2021/01/03 10:00:44;;;;;;;7.80;4.65;;;3.10;95.10;;;;;;4991939;28;20029;-79
2021/01/03 10:03:18;;;;;;;8.35;5.72;;;3.10;95.20;;;;;;5042947;28;20033;-79
2021/01/03 10:05:44;;;;;;;10.20;6.07;;;3.10;95.20;;;;;;5043214;28;20111;-79
2021/01/03 10:08:17;;;;;;;8.73;5.47;;;3.10;95.40;;;;;;5006844;28;20123;-79
2021/01/03 10:10:48;;;;;;;10.65;6.32;;;3.10;95.20;;;;;;4994266;28;20305;-79
2021/01/03 10:13:14;;;;;;;9.48;5.80;;;3.20;95.10;;;;;;4990134;28;20037;-79
2021/01/03 10:15:40;;;;;;;10.45;6.57;;;3.20;94.90;;;;;;5004839;28;20049;-79
2021/01/03 10:18:10;;;;;;;10.20;5.80;;;3.20;95.60;;;;;;4990026;28;20334;-80
2021/01/03 10:20:47;;;;;;;8.60;5.40;;;3.20;95.00;;;;;;5009195;28;20120;-80
2021/01/03 10:23:38;;;;;;;8.25;5.07;;;3.20;94.80;;;;;;5041149;28;20553;-79
2021/01/03 10:26:14;;;;;;;8.93;5.78;;;3.20;94.80;;;;;;5010399;28;20424;-80
2021/01/03 10:28:39;;;;;;;8.75;4.90;;;3.30;95.20;;;;;;4995367;28;20405;-79
2021/01/03 10:31:05;;;;;;;9.57;5.70;;;3.30;95.10;;;;;;4994235;28;20029;-79
2021/01/03 10:33:30;;;;;;;10.13;5.65;;;3.30;95.20;;;;;;4993028;28;20096;-78
2021/01/03 10:35:56;;;;;;;7.93;4.72;;;3.30;95.10;;;;;;5022571;28;20391;-78
2021/01/03 10:38:22;;;;;;;8.25;4.85;;;3.40;95.20;;;;;;5021328;28;20076;-78
2021/01/03 10:40:47;;;;;;;9.63;5.03;;;3.40;95.30;;;;;;5008183;28;20724;-78
2021/01/03 10:43:13;;;;;;;8.05;4.50;;;3.50;95.30;;;;;;4994481;28;20470;-79
2021/01/03 10:45:38;;;;;;;9.88;5.90;;;3.50;94.90;;;;;;4990615;28;20025;-79
2021/01/03 10:48:04;;;;;;;10.30;5.65;;;3.50;95.20;;;;;;5006400;28;20092;-79
2021/01/03 10:50:30;;;;;;;7.57;4.57;;;3.50;95.00;;;;;;5021817;28;20045;-79
2021/01/03 10:52:56;;;;;;;7.15;5.80;;;3.50;94.90;;;;;;5039562;28;20467;-79
2021/01/03 10:55:22;;;;;;;7.88;4.82;;;3.50;95.20;;;;;;5008218;28;20034;-78
2021/01/03 10:57:48;;;;;;;8.77;5.22;;;3.50;94.90;;;;;;5024474;28;20026;-78
2021/01/03 11:00:15;;;;;;;7.00;4.78;;;3.60;95.00;;;;;;4993186;28;20037;-78
2021/01/03 11:02:40;;;;;;;9.23;5.35;;;3.60;95.20;;;;;;5008785;28;20041;-79
2021/01/03 11:05:07;;;;;;;7.07;5.63;;;3.60;95.30;;;;;;5007145;28;20025;-79
2021/01/03 11:07:34;;;;;;;7.43;5.53;;;3.60;94.70;;;;;;5005562;28;20049;-79
2021/01/03 11:09:59;;;;;;;6.45;4.55;;;3.60;94.50;;;;;;5024770;28;20032;-79
2021/01/03 11:12:25;;;;;;;10.07;4.70;;;3.60;94.80;;;;;;5008473;28;20116;-79
2021/01/03 11:14:51;;;;;;;7.75;4.65;;;3.60;95.00;;;;;;5040570;28;20511;-79
2021/01/03 11:17:16;;;;;;;7.07;3.85;;;3.70;95.00;;;;;;5008977;28;20037;-78
2021/01/03 11:19:43;;;;;;;6.88;4.40;;;3.70;95.00;;;;;;4992369;28;20033;-78
2021/01/03 11:22:13;;;;;;;7.03;4.63;;;3.70;95.00;;;;;;5007907;28;20044;-79
2021/01/03 11:24:39;;;;;;;7.65;5.05;;;3.70;94.80;;;;;;4990761;28;20042;-78
2021/01/03 11:27:06;;;;;;;7.50;4.40;;;3.70;94.80;;;;;;5008824;28;20057;-78
2021/01/03 11:29:32;;;;;;;8.68;5.07;;;3.70;94.50;;;;;;5005623;28;20037;-78
2021/01/03 11:31:59;;;;;;;6.53;4.90;;;3.80;95.10;;;;;;5023412;28;20492;-78
2021/01/03 11:34:31;;;;;;;7.22;4.30;;;3.80;94.90;;;;;;4992386;28;20457;-78
2021/01/03 11:37:05;;;;;;;8.13;5.03;;;3.80;94.20;;;;;;4992089;28;20037;-78
2021/01/03 11:39:30;;;;;;;8.10;4.75;;;3.90;94.80;;;;;;5008765;28;20038;-78
2021/01/03 11:41:57;;;;;;;8.65;5.53;;;3.80;94.60;;;;;;5008136;28;20074;-78
2021/01/03 11:44:23;;;;;;;7.97;4.78;;;3.80;94.50;;;;;;4990192;28;20037;-78
2021/01/03 11:46:50;;;;;;;9.82;4.80;;;3.80;94.80;;;;;;5005506;28;20025;-78
2021/01/03 11:49:16;;;;;;;9.68;5.13;;;3.90;94.60;;;;;;4999090;28;20080;-78
2021/01/03 11:51:41;;;;;;;9.43;4.60;;;3.90;95.10;;;;;;4990932;28;20445;-77
2021/01/03 11:54:07;;;;;;;8.13;4.47;;;3.90;94.30;;;;;;5007591;28;20033;-78
2021/01/03 11:56:33;;;;;;;8.00;5.30;;;4.00;95.10;;;;;;4992125;28;20041;-78
2021/01/03 11:58:58;;;;;;;7.68;4.72;;;4.00;94.70;;;;;;5008211;28;20029;-78
2021/01/03 12:01:25;;;;;;;8.88;5.22;;;4.00;94.70;;;;;;5004434;28;20505;-78
2021/01/03 12:03:50;;;;;;;7.32;5.18;;;4.00;93.90;;;;;;5021957;28;20041;-78
2021/01/03 12:06:17;;;;;;;10.45;5.75;;;4.00;94.40;;;;;;5001952;28;20409;-78
2021/01/03 12:08:44;;;;;;;8.45;5.47;;;4.00;94.00;;;;;;5005708;28;20457;-81
2021/01/03 12:11:14;;;;;;;9.50;6.45;;;4.00;94.20;;;;;;5023657;28;20068;-80
2021/01/03 12:13:39;;;;;;;8.55;6.43;;;4.10;94.00;;;;;;5003400;28;20375;-80
2021/01/03 12:16:05;;;;;;;8.82;5.57;;;4.10;94.40;;;;;;5003057;28;20036;-80
2021/01/03 12:18:32;;;;;;;9.05;6.80;;;4.10;94.20;;;;;;5008226;28;20040;-80
2021/01/03 12:20:57;;;;;;;8.68;5.47;;;4.00;93.60;;;;;;5022137;28;20048;-81
2021/01/03 12:23:23;;;;;;;8.77;5.95;;;4.10;94.20;;;;;;5019839;28;20504;-80
2021/01/03 12:25:48;;;;;;;7.82;5.40;;;4.10;93.80;;;;;;5033530;28;20037;-79
2021/01/03 12:28:14;;;;;;;8.75;6.45;;;4.10;94.20;;;;;;5005764;28;20034;-79
2021/01/03 12:30:39;;;;;;;8.57;5.47;;;4.10;93.80;;;;;;5019212;28;20030;-79
2021/01/03 12:33:05;;;;;;;9.60;6.13;;;4.10;94.00;;;;;;5006481;28;20101;-79
2021/01/03 12:35:30;;;;;;;9.45;6.18;;;4.10;93.70;;;;;;5019860;28;20519;-79
2021/01/03 12:37:56;;;;;;;10.32;5.63;;;4.10;93.80;;;;;;5020551;28;20034;-79
2021/01/03 12:40:22;;;;;;;9.40;5.47;;;4.20;94.60;;;;;;5018966;28;20041;-79
2021/01/03 12:42:47;;;;;;;9.68;6.07;;;4.20;93.70;;;;;;5015996;28;20057;-80
2021/01/03 12:45:14;;;;;;;10.35;6.43;;;4.10;93.80;;;;;;5019484;28;20053;-80
2021/01/03 12:47:40;;;;;;;12.93;7.07;;;4.20;93.60;;;;;;5023049;28;20120;-80
2021/01/03 12:50:06;;;;;;;10.75;6.22;;;4.20;93.80;;;;;;4992757;28;20129;-80
2021/01/03 12:52:31;;;;;;;9.25;6.57;;;4.20;93.00;;;;;;5035762;28;20032;-79
2021/01/03 12:54:57;;;;;;;9.27;6.15;;;4.20;93.90;;;;;;5038807;28;20025;-80
2021/01/03 12:57:22;;;;;;;11.77;6.97;;;4.20;94.20;;;;;;5038370;28;20226;-80